sensor_id;sensor_type;location;lat;lon;timestamp;P1;P2;P0
31163;PMS5003;17796;49.296;-117.656;2022-10-31T00:12:15;11;11;
31163;PMS5003;17796;49.296;-117.656;2022-10-31T00:27:18;18;14;
31163;PMS5003;17796;49.296;-117.656;2022-10-31T00:42:22;15;14;
31163;PMS5003;17796;49.296;-117.656;2022-10-31T00:57:26;16;15;
31163;PMS5003;17796;49.296;-117.656;2022-10-31T01:12:29;21;15;
31163;PMS5003;17796;49.296;-117.656;2022-10-31T01:27:33;18;17;
31163;PMS5003;17796;49.296;-117.656;2022-10-31T01:42:37;17;16;
31163;PMS5003;17796;49.296;-117.656;2022-10-31T01:57:44;16;14;
31163;PMS5003;17796;49.296;-117.656;2022-10-31T02:12:49;18;15;
31163;PMS5003;17796;49.296;-117.656;2022-10-31T02:28:07;0.0;0.0;
31163;PMS5003;17796;49.296;-117.656;2022-10-31T02:43:20;19;13;
31163;PMS5003;17796;49.296;-117.656;2022-10-31T02:58:26;16;15;
31163;PMS5003;17796;49.296;-117.656;2022-10-31T03:13:41;22;18;
31163;PMS5003;17796;49.296;-117.656;2022-10-31T03:28:48;27;22;
31163;PMS5003;17796;49.296;-117.656;2022-10-31T03:43:57;24;20;
31163;PMS5003;17796;49.296;-117.656;2022-10-31T03:59:07;17;15;
31163;PMS5003;17796;49.296;-117.656;2022-10-31T04:14:14;15;12;
31163;PMS5003;17796;49.296;-117.656;2022-10-31T04:29:18;11;11;
31163;PMS5003;17796;49.296;-117.656;2022-10-31T04:44:22;10;10;
31163;PMS5003;17796;49.296;-117.656;2022-10-31T04:59:25;10;10;
31163;PMS5003;17796;49.296;-117.656;2022-10-31T05:14:29;11;10;
31163;PMS5003;17796;49.296;-117.656;2022-10-31T05:29:33;15;12;
31163;PMS5003;17796;49.296;-117.656;2022-10-31T05:44:36;13;9;
31163;PMS5003;17796;49.296;-117.656;2022-10-31T05:59:40;8;8;
31163;PMS5003;17796;49.296;-117.656;2022-10-31T06:14:44;15;10;
31163;PMS5003;17796;49.296;-117.656;2022-10-31T06:29:47;14;11;
31163;PMS5003;17796;49.296;-117.656;2022-10-31T06:44:51;14;13;
31163;PMS5003;17796;49.296;-117.656;2022-10-31T06:59:55;10;9;
31163;PMS5003;17796;49.296;-117.656;2022-10-31T07:14:58;7;7;
31163;PMS5003;17796;49.296;-117.656;2022-10-31T07:30:02;9;7;
31163;PMS5003;17796;49.296;-117.656;2022-10-31T07:45:09;8;8;
31163;PMS5003;17796;49.296;-117.656;2022-10-31T08:00:13;8;8;
31163;PMS5003;17796;49.296;-117.656;2022-10-31T08:15:17;6;6;
31163;PMS5003;17796;49.296;-117.656;2022-10-31T08:30:22;9;7;
31163;PMS5003;17796;49.296;-117.656;2022-10-31T08:45:26;7;7;
31163;PMS5003;17796;49.296;-117.656;2022-10-31T09:00:30;10;8;
31163;PMS5003;17796;49.296;-117.656;2022-10-31T09:15:35;10;10;
31163;PMS5003;17796;49.296;-117.656;2022-10-31T09:30:39;7;7;
31163;PMS5003;17796;49.296;-117.656;2022-10-31T09:45:52;11;10;
31163;PMS5003;17796;49.296;-117.656;2022-10-31T10:01:01;9;8;
31163;PMS5003;17796;49.296;-117.656;2022-10-31T10:16:19;7;7;
31163;PMS5003;17796;49.296;-117.656;2022-10-31T10:31:30;10;8;
31163;PMS5003;17796;49.296;-117.656;2022-10-31T10:46:51;8;5;
31163;PMS5003;17796;49.296;-117.656;2022-10-31T11:01:59;9;8;
31163;PMS5003;17796;49.296;-117.656;2022-10-31T11:17:11;10;8;
31163;PMS5003;17796;49.296;-117.656;2022-10-31T11:32:21;10;8;
31163;PMS5003;17796;49.296;-117.656;2022-10-31T11:47:29;18;18;
31163;PMS5003;17796;49.296;-117.656;2022-10-31T12:02:33;13;13;
31163;PMS5003;17796;49.296;-117.656;2022-10-31T12:17:40;14;14;
31163;PMS5003;17796;49.296;-117.656;2022-10-31T12:33:02;16;16;
31163;PMS5003;17796;49.296;-117.656;2022-10-31T12:48:21;27;22;
31163;PMS5003;17796;49.296;-117.656;2022-10-31T13:03:32;14;14;
31163;PMS5003;17796;49.296;-117.656;2022-10-31T13:18:42;18;18;
31163;PMS5003;17796;49.296;-117.656;2022-10-31T13:33:49;20;18;
31163;PMS5003;17796;49.296;-117.656;2022-10-31T13:48:54;16;14;
31163;PMS5003;17796;49.296;-117.656;2022-10-31T14:04:02;21;18;
31163;PMS5003;17796;49.296;-117.656;2022-10-31T14:19:13;20;12;
31163;PMS5003;17796;49.296;-117.656;2022-10-31T14:34:24;22;22;
31163;PMS5003;17796;49.296;-117.656;2022-10-31T14:49:43;19;14;
31163;PMS5003;17796;49.296;-117.656;2022-10-31T15:04:52;19;13;
31163;PMS5003;17796;49.296;-117.656;2022-10-31T15:19:56;23;22;
31163;PMS5003;17796;49.296;-117.656;2022-10-31T15:35:02;19;19;
31163;PMS5003;17796;49.296;-117.656;2022-10-31T15:50:22;22;18;
31163;PMS5003;17796;49.296;-117.656;2022-10-31T16:05:32;14;13;
31163;PMS5003;17796;49.296;-117.656;2022-10-31T16:20:37;16;12;
31163;PMS5003;17796;49.296;-117.656;2022-10-31T16:35:41;14;13;
31163;PMS5003;17796;49.296;-117.656;2022-10-31T16:50:45;16;16;
31163;PMS5003;17796;49.296;-117.656;2022-10-31T17:05:49;19;16;
31163;PMS5003;17796;49.296;-117.656;2022-10-31T17:20:56;16;15;
31163;PMS5003;17796;49.296;-117.656;2022-10-31T17:36:02;21;21;
31163;PMS5003;17796;49.296;-117.656;2022-10-31T17:51:07;26;24;
31163;PMS5003;17796;49.296;-117.656;2022-10-31T18:06:11;25;19;
31163;PMS5003;17796;49.296;-117.656;2022-10-31T18:21:15;29;25;
31163;PMS5003;17796;49.296;-117.656;2022-10-31T18:36:19;25;23;
31163;PMS5003;17796;49.296;-117.656;2022-10-31T18:51:23;30;29;
31163;PMS5003;17796;49.296;-117.656;2022-10-31T19:06:27;24;21;
31163;PMS5003;17796;49.296;-117.656;2022-10-31T19:21:31;25;22;
31163;PMS5003;17796;49.296;-117.656;2022-10-31T19:36:35;32;24;
31163;PMS5003;17796;49.296;-117.656;2022-10-31T19:51:39;33;29;
31163;PMS5003;17796;49.296;-117.656;2022-10-31T20:06:42;37;28;
31163;PMS5003;17796;49.296;-117.656;2022-10-31T20:21:46;27;26;
31163;PMS5003;17796;49.296;-117.656;2022-10-31T20:36:50;28;24;
31163;PMS5003;17796;49.296;-117.656;2022-10-31T20:51:53;30;26;
31163;PMS5003;17796;49.296;-117.656;2022-10-31T21:06:57;25;23;
31163;PMS5003;17796;49.296;-117.656;2022-10-31T21:22:01;28;21;
31163;PMS5003;17796;49.296;-117.656;2022-10-31T21:37:04;21;17;
31163;PMS5003;17796;49.296;-117.656;2022-10-31T21:52:08;22;20;
31163;PMS5003;17796;49.296;-117.656;2022-10-31T22:07:12;20;18;
31163;PMS5003;17796;49.296;-117.656;2022-10-31T22:22:16;17;15;
31163;PMS5003;17796;49.296;-117.656;2022-10-31T22:37:20;18;15;
31163;PMS5003;17796;49.296;-117.656;2022-10-31T22:52:23;5;5;
31163;PMS5003;17796;49.296;-117.656;2022-10-31T23:07:27;5;4;
31163;PMS5003;17796;49.296;-117.656;2022-10-31T23:22:31;1;1;
31163;PMS5003;17796;49.296;-117.656;2022-10-31T23:37:37;3;1;
31163;PMS5003;17796;49.296;-117.656;2022-10-31T23:52:41;0;0;
